Oglasa — ITMG — position and weather

sailwx.info

Track history (hours):
 
Tides and Currents Weather Stations Pressure Air Temp Water Temp Dewpoint Dewpoint Depression Visibility Wind Speed Wind Dir Waves Ship Positions

Oglasa

Last reported at 2016-Dec-07 07:09 UTC. Time now 2016-Dec-07 22:17 UTC.
Position N 42°56' E 010°34'.

Length 91 m; draft 3.8 m.

Type: Ship. MMSI: 247046800.

Date/timePositionNaut miles runAvg speedWind from/ knotsBaromVisibWave heightAir tempDewpointWater temp
2016-Dec-07 07:09N 42°56' E 010°34'1 0.9
2016-Dec-07 06:33N 42°56' E 010°33'5 0.2
2016-Dec-06 06:06N 42°53' E 010°27'8 0.3
2016-Dec-05 03:05N 42°49' E 010°19'0 0.0
2016-Dec-05 02:22N 42°49' E 010°19'0 0.0
2016-Dec-05 01:33N 42°49' E 010°19'0 0.0
2016-Dec-05 00:33N 42°49' E 010°19'0 0.0
2016-Dec-04 23:30N 42°49' E 010°19'0 0.0
2016-Dec-04 22:28N 42°49' E 010°19'0 0.0
2016-Dec-04 21:22N 42°49' E 010°19'0 0.0
2016-Dec-04 20:22N 42°49' E 010°19'0 0.0
2016-Dec-04 19:30N 42°49' E 010°19'0 0.0
2016-Dec-04 09:32N 42°49' E 010°19'0 0.0
2016-Dec-04 08:32N 42°49' E 010°19'0 0.0
2016-Dec-04 07:33N 42°49' E 010°19'0 0.0
2016-Dec-04 06:29N 42°49' E 010°19'0 0.0
2016-Dec-04 02:10N 42°49' E 010°19'0 0.0
2016-Dec-04 01:33N 42°49' E 010°19'0 0.0
2016-Dec-04 00:32N 42°49' E 010°19'0 0.0
2016-Dec-03 19:29N 42°49' E 010°19'0 0.0
2016-Dec-03 18:32N 42°49' E 010°19'11 1.2
2016-Dec-03 09:15N 42°54' E 010°32'5 2.7
2016-Dec-03 07:33N 42°53' E 010°26'18 0.9
2016-Dec-02 12:14N 43°10' E 010°20'1015.4
2016-Dec-02 11:33N 43°20' E 010°17'1212.1
2016-Dec-02 10:33N 43°32' E 010°17'1 0.5
2016-Dec-02 09:33N 43°33' E 010°18'0 0.0
2016-Dec-02 08:33N 43°33' E 010°18'  
Track history (hours):
 
Tides and Currents Weather Stations Pressure Air Temp Water Temp Dewpoint Dewpoint Depression Visibility Wind Speed Wind Dir Waves Ship Positions

Oglasa

Last reported at 2016-Dec-07 07:09 UTC. Time now 2016-Dec-07 22:17 UTC.
Position N 42°56' E 010°34'.

Length 91 m; draft 3.8 m.

Type: Ship. MMSI: 247046800.

Date/timePositionNaut miles runAvg speedWind from/ knotsBaromVisibWave heightAir tempDewpointWater temp
2016-Dec-07 07:09N 42°56' E 010°34'1 0.9
2016-Dec-07 06:33N 42°56' E 010°33'5 0.2
2016-Dec-06 06:06N 42°53' E 010°27'8 0.3
2016-Dec-05 03:05N 42°49' E 010°19'0 0.0
2016-Dec-05 02:22N 42°49' E 010°19'0 0.0
2016-Dec-05 01:33N 42°49' E 010°19'0 0.0
2016-Dec-05 00:33N 42°49' E 010°19'0 0.0
2016-Dec-04 23:30N 42°49' E 010°19'0 0.0
2016-Dec-04 22:28N 42°49' E 010°19'0 0.0
2016-Dec-04 21:22N 42°49' E 010°19'0 0.0
2016-Dec-04 20:22N 42°49' E 010°19'0 0.0
2016-Dec-04 19:30N 42°49' E 010°19'0 0.0
2016-Dec-04 09:32N 42°49' E 010°19'0 0.0
2016-Dec-04 08:32N 42°49' E 010°19'0 0.0
2016-Dec-04 07:33N 42°49' E 010°19'0 0.0
2016-Dec-04 06:29N 42°49' E 010°19'0 0.0
2016-Dec-04 02:10N 42°49' E 010°19'0 0.0
2016-Dec-04 01:33N 42°49' E 010°19'0 0.0
2016-Dec-04 00:32N 42°49' E 010°19'0 0.0
2016-Dec-03 19:29N 42°49' E 010°19'0 0.0
2016-Dec-03 18:32N 42°49' E 010°19'11 1.2
2016-Dec-03 09:15N 42°54' E 010°32'5 2.7
2016-Dec-03 07:33N 42°53' E 010°26'18 0.9
2016-Dec-02 12:14N 43°10' E 010°20'1015.4
2016-Dec-02 11:33N 43°20' E 010°17'1212.1
2016-Dec-02 10:33N 43°32' E 010°17'1 0.5
2016-Dec-02 09:33N 43°33' E 010°18'0 0.0
2016-Dec-02 08:33N 43°33' E 010°18'  

Dump ship's entire track history